Sugar Tree Ridge, Ohio
Current Conditions -  °F | °C
As of 10:54 PM on Tuesday 27 Jan 2015 (Local Time) from KILN Reporting Station
Clear Clear  
Wind Chill:   Ceiling: Unl
Heat Index: 15°   Visibility: 8mi
Dew Point:   Wind: 5mph
Humidity: 77%   Direction: 300°WNW
Pressure: 30.21"   Gusts: NA
Location:  39.1546°N, 83.569°W
Report Text: KILN 280354Z AUTO 30004KT 8SM CLR M09/M13 A3021 RMK AO2 SLP270 T10941128
Loading
Personal Weather Stations






























Interactive Weather Map New forecast layout! Learn more

10-Day Weather Forecast

Advertisements
Track Severe Weather on mobile